Aviation Digital Data Service (ADDS)

Output produced by METARs form (1310 UTC 21 February 2018)
found at http://www.aviationweather.gov/adds/metars/
 
KBWI 211254Z 21008KT 10SM FEW016 FEW040 SCT250 17/16 A3032 RMK AO2 SLP267 T01720161
KBWI 201458Z 2015/2118 22007KT P6SM SCT015 
     FM201700 21010KT P6SM SCT200 
     FM210600 21005KT 6SM BR BKN008 
     FM211400 22008KT P6SM SCT020
       
KCGE 211255Z AUTO 20007KT 10SM OVC013 17/16 A3038 RMK A01
KADW 211256Z 21013KT 10SM CLR 17/16 A3034 RMK AO2A SLP280 T01730160 $
TAF AMD KADW 201400Z 2014/2115 20012KT 4800 BR BKN008 WS020/23040KT QNH3030INS 
     BECMG 2014/2015 20012KT 4800 BR SCT008 WS020/23040KT QNH3030INS 
     BECMG 2015/2017 21012G18KT 9999 NSW BKN008 QNH3035INS 
     BECMG 2023/2024 20009KT 9999 BKN010 WS020/23040KT QNH3039INS 
     BECMG 2105/2106 21006KT 4800 BR OVC005 WS020/23040KT QNH3038INS TX21/2016Z TN13/2014Z
       
KCBE 211257Z AUTO 00000KT 7SM CLR 10/10 A3033 RMK AO1
KFME 211257Z AUTO 22006KT 10SM CLR 17/15 A3035 RMK AO1
KFDK 211247Z 00000KT 10SM MIFG SKC 12/12 A3034
KGAI 211256Z AUTO VRB05KT 10SM CLR 18/15 A3034 RMK AO2 SLP298 T01780150
KHGR 211253Z 19008KT 10SM CLR 17/12 A3029 RMK AO2 SLP264 T01670122
K2W6 211257Z AUTO 21008KT 10SM OVC010 17/16 A3041 RMK AO1
K2G4 211255Z AUTO 22011G16KT 10SM CLR 16/09 A3030 RMK AO1
KOXB 211253Z AUTO 21007KT 6SM BR BKN005 OVC008 13/13 A3042 RMK AO2 SLP299 T01280128
KSBY 211254Z 22013G19KT 10SM OVC008 18/17 A3040 RMK AO2 SLP297 T01830172
KW29 211255Z AUTO 19008KT 7SM BR SCT008 SCT013 16/15 A3035 RMK AO2
KDMW 211255Z AUTO 20005KT 10SM CLR 16/15 A3031 RMK AO2